sensor_id;sensor_type;location;lat;lon;timestamp;P1;durP1;ratioP1;P2;durP2;ratioP2
5014;SDS011;2526;51.060;4.228;2023-06-19T00:01:13;1.77;;;0.93;;
5014;SDS011;2526;51.060;4.228;2023-06-19T00:03:39;1.70;;;1.15;;
5014;SDS011;2526;51.060;4.228;2023-06-19T00:06:05;4.00;;;1.30;;
5014;SDS011;2526;51.060;4.228;2023-06-19T00:08:30;3.38;;;0.90;;
5014;SDS011;2526;51.060;4.228;2023-06-19T00:10:56;1.65;;;0.73;;
5014;SDS011;2526;51.060;4.228;2023-06-19T00:13:21;4.10;;;1.58;;
5014;SDS011;2526;51.060;4.228;2023-06-19T00:15:47;1.65;;;1.10;;
5014;SDS011;2526;51.060;4.228;2023-06-19T00:18:12;1.52;;;1.30;;
5014;SDS011;2526;51.060;4.228;2023-06-19T00:20:38;0.95;;;0.57;;
5014;SDS011;2526;51.060;4.228;2023-06-19T00:23:04;1.33;;;0.75;;
5014;SDS011;2526;51.060;4.228;2023-06-19T00:25:30;0.75;;;0.55;;
5014;SDS011;2526;51.060;4.228;2023-06-19T00:27:55;3.28;;;1.02;;
5014;SDS011;2526;51.060;4.228;2023-06-19T00:30:21;3.03;;;0.80;;
5014;SDS011;2526;51.060;4.228;2023-06-19T00:32:46;2.00;;;1.40;;
5014;SDS011;2526;51.060;4.228;2023-06-19T00:35:13;1.05;;;0.80;;
5014;SDS011;2526;51.060;4.228;2023-06-19T00:37:38;2.20;;;1.15;;
5014;SDS011;2526;51.060;4.228;2023-06-19T00:40:05;1.83;;;1.10;;
5014;SDS011;2526;51.060;4.228;2023-06-19T00:42:31;1.90;;;0.90;;
5014;SDS011;2526;51.060;4.228;2023-06-19T00:44:57;3.78;;;1.70;;
5014;SDS011;2526;51.060;4.228;2023-06-19T00:47:22;1.17;;;0.88;;
5014;SDS011;2526;51.060;4.228;2023-06-19T00:49:48;2.38;;;0.70;;
5014;SDS011;2526;51.060;4.228;2023-06-19T00:52:13;1.73;;;1.02;;
5014;SDS011;2526;51.060;4.228;2023-06-19T00:54:39;1.83;;;0.95;;
5014;SDS011;2526;51.060;4.228;2023-06-19T00:57:04;1.65;;;1.10;;
5014;SDS011;2526;51.060;4.228;2023-06-19T00:59:30;1.85;;;1.00;;
5014;SDS011;2526;51.060;4.228;2023-06-19T01:01:56;1.02;;;0.90;;
5014;SDS011;2526;51.060;4.228;2023-06-19T01:04:21;3.97;;;1.33;;
5014;SDS011;2526;51.060;4.228;2023-06-19T01:09:13;2.03;;;1.20;;
5014;SDS011;2526;51.060;4.228;2023-06-19T01:11:43;8.07;;;1.77;;
5014;SDS011;2526;51.060;4.228;2023-06-19T01:14:10;8.77;;;2.55;;
5014;SDS011;2526;51.060;4.228;2023-06-19T01:16:38;2.47;;;1.30;;
5014;SDS011;2526;51.060;4.228;2023-06-19T01:19:03;3.30;;;1.38;;
5014;SDS011;2526;51.060;4.228;2023-06-19T01:21:30;2.58;;;1.40;;
5014;SDS011;2526;51.060;4.228;2023-06-19T01:23:56;2.20;;;1.67;;
5014;SDS011;2526;51.060;4.228;2023-06-19T01:26:22;5.35;;;1.60;;
5014;SDS011;2526;51.060;4.228;2023-06-19T01:28:51;1.45;;;1.08;;
5014;SDS011;2526;51.060;4.228;2023-06-19T01:31:20;2.08;;;1.25;;
5014;SDS011;2526;51.060;4.228;2023-06-19T01:33:49;2.95;;;1.73;;
5014;SDS011;2526;51.060;4.228;2023-06-19T01:36:15;6.55;;;1.58;;
5014;SDS011;2526;51.060;4.228;2023-06-19T01:38:42;1.45;;;0.98;;
5014;SDS011;2526;51.060;4.228;2023-06-19T01:41:09;2.35;;;1.55;;
5014;SDS011;2526;51.060;4.228;2023-06-19T01:43:35;1.85;;;1.33;;
5014;SDS011;2526;51.060;4.228;2023-06-19T01:46:00;3.70;;;1.70;;
5014;SDS011;2526;51.060;4.228;2023-06-19T01:48:26;2.65;;;1.92;;
5014;SDS011;2526;51.060;4.228;2023-06-19T01:50:51;2.22;;;1.15;;
5014;SDS011;2526;51.060;4.228;2023-06-19T01:53:17;1.77;;;1.25;;
5014;SDS011;2526;51.060;4.228;2023-06-19T01:55:42;2.28;;;1.55;;
5014;SDS011;2526;51.060;4.228;2023-06-19T01:58:08;2.38;;;1.67;;
5014;SDS011;2526;51.060;4.228;2023-06-19T02:00:33;2.47;;;1.42;;
5014;SDS011;2526;51.060;4.228;2023-06-19T02:03:03;1.80;;;1.40;;
5014;SDS011;2526;51.060;4.228;2023-06-19T02:05:29;1.98;;;1.55;;
5014;SDS011;2526;51.060;4.228;2023-06-19T02:07:55;2.92;;;1.73;;
5014;SDS011;2526;51.060;4.228;2023-06-19T02:10:20;2.83;;;1.42;;
5014;SDS011;2526;51.060;4.228;2023-06-19T02:12:46;4.95;;;2.20;;
5014;SDS011;2526;51.060;4.228;2023-06-19T02:15:11;4.65;;;2.17;;
5014;SDS011;2526;51.060;4.228;2023-06-19T02:17:37;3.05;;;1.52;;
5014;SDS011;2526;51.060;4.228;2023-06-19T02:20:02;2.13;;;1.55;;
5014;SDS011;2526;51.060;4.228;2023-06-19T02:22:30;4.25;;;1.75;;
5014;SDS011;2526;51.060;4.228;2023-06-19T02:24:56;2.53;;;1.52;;
5014;SDS011;2526;51.060;4.228;2023-06-19T02:27:21;3.95;;;2.15;;
5014;SDS011;2526;51.060;4.228;2023-06-19T02:29:47;5.28;;;2.83;;
5014;SDS011;2526;51.060;4.228;2023-06-19T02:32:12;3.83;;;1.88;;
5014;SDS011;2526;51.060;4.228;2023-06-19T02:34:38;3.08;;;2.28;;
5014;SDS011;2526;51.060;4.228;2023-06-19T02:37:03;4.22;;;2.38;;
5014;SDS011;2526;51.060;4.228;2023-06-19T02:39:29;1.92;;;1.65;;
5014;SDS011;2526;51.060;4.228;2023-06-19T02:41:54;2.75;;;1.80;;
5014;SDS011;2526;51.060;4.228;2023-06-19T02:44:20;2.78;;;1.58;;
5014;SDS011;2526;51.060;4.228;2023-06-19T02:46:45;2.50;;;1.92;;
5014;SDS011;2526;51.060;4.228;2023-06-19T02:49:10;3.35;;;1.67;;
5014;SDS011;2526;51.060;4.228;2023-06-19T02:51:36;3.70;;;2.50;;
5014;SDS011;2526;51.060;4.228;2023-06-19T02:54:02;2.88;;;1.88;;
5014;SDS011;2526;51.060;4.228;2023-06-19T02:56:28;3.72;;;2.33;;
5014;SDS011;2526;51.060;4.228;2023-06-19T02:58:54;5.22;;;2.13;;
5014;SDS011;2526;51.060;4.228;2023-06-19T03:01:19;4.05;;;2.10;;
5014;SDS011;2526;51.060;4.228;2023-06-19T03:03:45;5.32;;;2.50;;
5014;SDS011;2526;51.060;4.228;2023-06-19T03:06:11;5.50;;;3.42;;
5014;SDS011;2526;51.060;4.228;2023-06-19T03:08:38;5.40;;;2.80;;
5014;SDS011;2526;51.060;4.228;2023-06-19T03:11:04;4.57;;;2.30;;
5014;SDS011;2526;51.060;4.228;2023-06-19T03:13:43;3.63;;;2.17;;
5014;SDS011;2526;51.060;4.228;2023-06-19T03:16:09;6.25;;;2.42;;
5014;SDS011;2526;51.060;4.228;2023-06-19T03:18:34;3.22;;;2.33;;
5014;SDS011;2526;51.060;4.228;2023-06-19T03:20:59;3.55;;;2.70;;
5014;SDS011;2526;51.060;4.228;2023-06-19T03:23:25;7.25;;;3.83;;
5014;SDS011;2526;51.060;4.228;2023-06-19T03:25:50;3.72;;;2.17;;
5014;SDS011;2526;51.060;4.228;2023-06-19T03:28:16;3.63;;;2.85;;
5014;SDS011;2526;51.060;4.228;2023-06-19T03:30:41;2.00;;;1.50;;
5014;SDS011;2526;51.060;4.228;2023-06-19T03:33:07;5.10;;;2.13;;
5014;SDS011;2526;51.060;4.228;2023-06-19T03:35:32;2.50;;;1.40;;
5014;SDS011;2526;51.060;4.228;2023-06-19T03:37:57;6.22;;;2.40;;
5014;SDS011;2526;51.060;4.228;2023-06-19T03:40:23;6.50;;;2.67;;
5014;SDS011;2526;51.060;4.228;2023-06-19T03:42:48;4.28;;;1.90;;
5014;SDS011;2526;51.060;4.228;2023-06-19T03:45:14;7.18;;;3.40;;
5014;SDS011;2526;51.060;4.228;2023-06-19T03:47:40;7.65;;;3.67;;
5014;SDS011;2526;51.060;4.228;2023-06-19T03:50:05;7.40;;;3.42;;
5014;SDS011;2526;51.060;4.228;2023-06-19T03:52:35;3.45;;;2.08;;
5014;SDS011;2526;51.060;4.228;2023-06-19T03:55:00;5.65;;;2.33;;
5014;SDS011;2526;51.060;4.228;2023-06-19T03:57:26;3.67;;;2.40;;
5014;SDS011;2526;51.060;4.228;2023-06-19T03:59:52;4.78;;;2.47;;
5014;SDS011;2526;51.060;4.228;2023-06-19T04:02:19;2.65;;;1.65;;
5014;SDS011;2526;51.060;4.228;2023-06-19T04:04:44;7.43;;;2.72;;
5014;SDS011;2526;51.060;4.228;2023-06-19T04:07:10;3.28;;;2.75;;
5014;SDS011;2526;51.060;4.228;2023-06-19T04:09:35;3.15;;;1.55;;
5014;SDS011;2526;51.060;4.228;2023-06-19T04:12:01;4.38;;;2.25;;
5014;SDS011;2526;51.060;4.228;2023-06-19T04:14:26;3.50;;;2.25;;
5014;SDS011;2526;51.060;4.228;2023-06-19T04:16:52;2.55;;;2.30;;
5014;SDS011;2526;51.060;4.228;2023-06-19T04:19:17;3.58;;;1.95;;
5014;SDS011;2526;51.060;4.228;2023-06-19T04:21:43;3.70;;;2.30;;
5014;SDS011;2526;51.060;4.228;2023-06-19T04:24:08;3.63;;;2.58;;
5014;SDS011;2526;51.060;4.228;2023-06-19T04:26:34;3.65;;;2.42;;
5014;SDS011;2526;51.060;4.228;2023-06-19T04:29:01;5.22;;;3.00;;
5014;SDS011;2526;51.060;4.228;2023-06-19T04:31:26;6.10;;;2.78;;
5014;SDS011;2526;51.060;4.228;2023-06-19T04:33:52;6.95;;;3.92;;
5014;SDS011;2526;51.060;4.228;2023-06-19T04:36:17;4.53;;;2.97;;
5014;SDS011;2526;51.060;4.228;2023-06-19T04:38:44;7.43;;;2.72;;
5014;SDS011;2526;51.060;4.228;2023-06-19T04:41:10;2.90;;;2.28;;
5014;SDS011;2526;51.060;4.228;2023-06-19T04:43:35;3.83;;;2.42;;
5014;SDS011;2526;51.060;4.228;2023-06-19T04:46:01;3.55;;;2.00;;
5014;SDS011;2526;51.060;4.228;2023-06-19T04:48:29;3.53;;;2.28;;
5014;SDS011;2526;51.060;4.228;2023-06-19T04:50:54;4.43;;;2.35;;
5014;SDS011;2526;51.060;4.228;2023-06-19T04:53:21;4.00;;;2.60;;
5014;SDS011;2526;51.060;4.228;2023-06-19T04:55:46;2.25;;;1.98;;
5014;SDS011;2526;51.060;4.228;2023-06-19T04:58:12;5.05;;;2.97;;
5014;SDS011;2526;51.060;4.228;2023-06-19T05:00:37;3.85;;;2.47;;
5014;SDS011;2526;51.060;4.228;2023-06-19T05:03:03;4.80;;;3.13;;
5014;SDS011;2526;51.060;4.228;2023-06-19T05:05:28;5.88;;;3.85;;
5014;SDS011;2526;51.060;4.228;2023-06-19T05:07:54;5.63;;;3.53;;
5014;SDS011;2526;51.060;4.228;2023-06-19T05:10:19;6.40;;;3.83;;
5014;SDS011;2526;51.060;4.228;2023-06-19T05:12:44;6.05;;;4.05;;
5014;SDS011;2526;51.060;4.228;2023-06-19T05:15:10;6.28;;;4.32;;
5014;SDS011;2526;51.060;4.228;2023-06-19T05:17:36;10.27;;;4.28;;
5014;SDS011;2526;51.060;4.228;2023-06-19T05:20:04;4.45;;;3.20;;
5014;SDS011;2526;51.060;4.228;2023-06-19T05:22:30;6.90;;;3.92;;
5014;SDS011;2526;51.060;4.228;2023-06-19T05:24:56;12.80;;;4.90;;
5014;SDS011;2526;51.060;4.228;2023-06-19T05:27:22;7.50;;;4.35;;
5014;SDS011;2526;51.060;4.228;2023-06-19T05:29:47;7.10;;;4.18;;
5014;SDS011;2526;51.060;4.228;2023-06-19T05:32:13;6.35;;;4.38;;
5014;SDS011;2526;51.060;4.228;2023-06-19T05:34:38;9.50;;;4.53;;
5014;SDS011;2526;51.060;4.228;2023-06-19T05:37:04;10.77;;;4.72;;
5014;SDS011;2526;51.060;4.228;2023-06-19T05:39:29;11.82;;;5.20;;
5014;SDS011;2526;51.060;4.228;2023-06-19T05:41:55;7.55;;;4.32;;
5014;SDS011;2526;51.060;4.228;2023-06-19T05:44:20;7.90;;;5.13;;
5014;SDS011;2526;51.060;4.228;2023-06-19T05:46:45;9.35;;;5.15;;
5014;SDS011;2526;51.060;4.228;2023-06-19T05:49:11;7.68;;;5.25;;
5014;SDS011;2526;51.060;4.228;2023-06-19T05:51:36;9.25;;;5.38;;
5014;SDS011;2526;51.060;4.228;2023-06-19T05:54:02;20.10;;;6.13;;
5014;SDS011;2526;51.060;4.228;2023-06-19T05:56:32;7.10;;;4.45;;
5014;SDS011;2526;51.060;4.228;2023-06-19T05:59:01;8.35;;;6.43;;
5014;SDS011;2526;51.060;4.228;2023-06-19T06:01:27;13.68;;;6.20;;
5014;SDS011;2526;51.060;4.228;2023-06-19T06:03:55;6.28;;;4.22;;
5014;SDS011;2526;51.060;4.228;2023-06-19T06:06:21;9.02;;;5.30;;
5014;SDS011;2526;51.060;4.228;2023-06-19T06:08:47;13.82;;;6.32;;
5014;SDS011;2526;51.060;4.228;2023-06-19T06:11:12;6.05;;;4.63;;
5014;SDS011;2526;51.060;4.228;2023-06-19T06:13:38;7.50;;;4.45;;
5014;SDS011;2526;51.060;4.228;2023-06-19T06:16:04;9.43;;;5.30;;
5014;SDS011;2526;51.060;4.228;2023-06-19T06:18:29;9.98;;;6.03;;
5014;SDS011;2526;51.060;4.228;2023-06-19T06:20:54;8.68;;;5.68;;
5014;SDS011;2526;51.060;4.228;2023-06-19T06:23:20;6.70;;;4.60;;
5014;SDS011;2526;51.060;4.228;2023-06-19T06:25:45;11.77;;;5.38;;
5014;SDS011;2526;51.060;4.228;2023-06-19T06:28:11;9.68;;;5.88;;
5014;SDS011;2526;51.060;4.228;2023-06-19T06:30:36;9.52;;;5.10;;
5014;SDS011;2526;51.060;4.228;2023-06-19T06:33:02;9.80;;;5.15;;
5014;SDS011;2526;51.060;4.228;2023-06-19T06:35:27;7.50;;;5.13;;
5014;SDS011;2526;51.060;4.228;2023-06-19T06:37:53;9.52;;;6.03;;
5014;SDS011;2526;51.060;4.228;2023-06-19T06:40:19;9.60;;;5.50;;
5014;SDS011;2526;51.060;4.228;2023-06-19T06:42:44;9.85;;;6.15;;
5014;SDS011;2526;51.060;4.228;2023-06-19T06:45:10;10.18;;;6.03;;
5014;SDS011;2526;51.060;4.228;2023-06-19T06:47:35;7.43;;;5.10;;
5014;SDS011;2526;51.060;4.228;2023-06-19T06:50:01;12.27;;;6.15;;
5014;SDS011;2526;51.060;4.228;2023-06-19T06:52:26;6.57;;;4.93;;
5014;SDS011;2526;51.060;4.228;2023-06-19T06:54:53;10.48;;;5.05;;
5014;SDS011;2526;51.060;4.228;2023-06-19T06:57:18;11.93;;;6.07;;
5014;SDS011;2526;51.060;4.228;2023-06-19T06:59:44;8.45;;;5.43;;
5014;SDS011;2526;51.060;4.228;2023-06-19T07:02:09;7.32;;;4.72;;
5014;SDS011;2526;51.060;4.228;2023-06-19T07:04:35;8.30;;;4.93;;
5014;SDS011;2526;51.060;4.228;2023-06-19T07:07:00;4.25;;;3.75;;
5014;SDS011;2526;51.060;4.228;2023-06-19T07:09:27;6.35;;;4.80;;
5014;SDS011;2526;51.060;4.228;2023-06-19T07:11:52;7.13;;;4.43;;
5014;SDS011;2526;51.060;4.228;2023-06-19T07:14:17;9.48;;;4.85;;
5014;SDS011;2526;51.060;4.228;2023-06-19T07:16:44;6.13;;;4.00;;
5014;SDS011;2526;51.060;4.228;2023-06-19T07:19:10;10.65;;;4.63;;
5014;SDS011;2526;51.060;4.228;2023-06-19T07:21:35;6.35;;;4.03;;
5014;SDS011;2526;51.060;4.228;2023-06-19T07:24:01;5.88;;;3.53;;
5014;SDS011;2526;51.060;4.228;2023-06-19T07:26:27;6.75;;;4.07;;
5014;SDS011;2526;51.060;4.228;2023-06-19T07:28:52;5.95;;;4.53;;
5014;SDS011;2526;51.060;4.228;2023-06-19T07:31:18;9.00;;;4.40;;
5014;SDS011;2526;51.060;4.228;2023-06-19T07:33:43;6.07;;;4.97;;
5014;SDS011;2526;51.060;4.228;2023-06-19T07:36:09;9.57;;;4.60;;
5014;SDS011;2526;51.060;4.228;2023-06-19T07:38:39;10.40;;;4.25;;
5014;SDS011;2526;51.060;4.228;2023-06-19T07:41:05;12.80;;;5.65;;
5014;SDS011;2526;51.060;4.228;2023-06-19T07:43:32;7.95;;;4.97;;
5014;SDS011;2526;51.060;4.228;2023-06-19T07:45:58;8.15;;;5.25;;
5014;SDS011;2526;51.060;4.228;2023-06-19T07:48:24;5.75;;;3.70;;
5014;SDS011;2526;51.060;4.228;2023-06-19T07:50:49;7.50;;;5.72;;
5014;SDS011;2526;51.060;4.228;2023-06-19T07:53:15;5.65;;;4.07;;
5014;SDS011;2526;51.060;4.228;2023-06-19T07:55:41;5.13;;;4.25;;
5014;SDS011;2526;51.060;4.228;2023-06-19T07:58:07;6.57;;;5.18;;
5014;SDS011;2526;51.060;4.228;2023-06-19T08:00:32;4.00;;;3.55;;
5014;SDS011;2526;51.060;4.228;2023-06-19T08:02:57;7.15;;;4.70;;
5014;SDS011;2526;51.060;4.228;2023-06-19T08:05:23;8.45;;;4.45;;
5014;SDS011;2526;51.060;4.228;2023-06-19T08:07:48;6.93;;;4.53;;
5014;SDS011;2526;51.060;4.228;2023-06-19T08:10:14;8.07;;;4.72;;
5014;SDS011;2526;51.060;4.228;2023-06-19T08:12:42;9.02;;;4.30;;
5014;SDS011;2526;51.060;4.228;2023-06-19T08:15:08;8.93;;;4.05;;
5014;SDS011;2526;51.060;4.228;2023-06-19T08:17:34;10.38;;;4.78;;
5014;SDS011;2526;51.060;4.228;2023-06-19T08:20:00;9.82;;;5.88;;
5014;SDS011;2526;51.060;4.228;2023-06-19T08:22:25;8.70;;;4.35;;
5014;SDS011;2526;51.060;4.228;2023-06-19T08:24:51;9.25;;;3.28;;
5014;SDS011;2526;51.060;4.228;2023-06-19T08:27:16;7.53;;;4.40;;
5014;SDS011;2526;51.060;4.228;2023-06-19T08:29:42;8.10;;;4.20;;
5014;SDS011;2526;51.060;4.228;2023-06-19T08:32:08;7.45;;;4.80;;
5014;SDS011;2526;51.060;4.228;2023-06-19T08:34:34;9.00;;;4.55;;
5014;SDS011;2526;51.060;4.228;2023-06-19T08:37:00;4.25;;;3.25;;
5014;SDS011;2526;51.060;4.228;2023-06-19T08:39:25;8.23;;;4.07;;
5014;SDS011;2526;51.060;4.228;2023-06-19T08:41:51;5.32;;;4.07;;
5014;SDS011;2526;51.060;4.228;2023-06-19T08:44:18;5.03;;;4.50;;
5014;SDS011;2526;51.060;4.228;2023-06-19T08:46:44;6.15;;;4.05;;
5014;SDS011;2526;51.060;4.228;2023-06-19T08:49:09;7.93;;;3.63;;
5014;SDS011;2526;51.060;4.228;2023-06-19T08:51:37;4.65;;;3.22;;
5014;SDS011;2526;51.060;4.228;2023-06-19T08:54:04;4.95;;;3.28;;
5014;SDS011;2526;51.060;4.228;2023-06-19T08:56:30;10.45;;;4.13;;
5014;SDS011;2526;51.060;4.228;2023-06-19T08:59:12;4.90;;;3.10;;
5014;SDS011;2526;51.060;4.228;2023-06-19T09:01:38;5.47;;;4.03;;
5014;SDS011;2526;51.060;4.228;2023-06-19T09:04:10;13.45;;;3.83;;
5014;SDS011;2526;51.060;4.228;2023-06-19T09:06:36;8.77;;;4.13;;
5014;SDS011;2526;51.060;4.228;2023-06-19T09:09:04;6.20;;;3.78;;
5014;SDS011;2526;51.060;4.228;2023-06-19T09:11:32;7.55;;;3.63;;
5014;SDS011;2526;51.060;4.228;2023-06-19T09:13:57;7.78;;;3.20;;
5014;SDS011;2526;51.060;4.228;2023-06-19T09:16:23;6.20;;;4.30;;
5014;SDS011;2526;51.060;4.228;2023-06-19T09:18:49;5.45;;;3.70;;
5014;SDS011;2526;51.060;4.228;2023-06-19T09:21:19;4.68;;;2.80;;
5014;SDS011;2526;51.060;4.228;2023-06-19T09:23:45;3.95;;;2.65;;
5014;SDS011;2526;51.060;4.228;2023-06-19T09:26:10;8.77;;;3.28;;
5014;SDS011;2526;51.060;4.228;2023-06-19T09:28:40;5.38;;;3.33;;
5014;SDS011;2526;51.060;4.228;2023-06-19T09:31:06;6.35;;;3.08;;
5014;SDS011;2526;51.060;4.228;2023-06-19T09:33:32;6.50;;;2.92;;
5014;SDS011;2526;51.060;4.228;2023-06-19T09:35:58;4.45;;;2.60;;
5014;SDS011;2526;51.060;4.228;2023-06-19T09:38:25;5.45;;;3.35;;
5014;SDS011;2526;51.060;4.228;2023-06-19T09:40:51;4.05;;;2.78;;
5014;SDS011;2526;51.060;4.228;2023-06-19T09:43:18;6.22;;;2.90;;
5014;SDS011;2526;51.060;4.228;2023-06-19T09:45:48;5.40;;;3.90;;
5014;SDS011;2526;51.060;4.228;2023-06-19T09:48:14;3.95;;;2.92;;
5014;SDS011;2526;51.060;4.228;2023-06-19T09:50:43;3.75;;;3.00;;
5014;SDS011;2526;51.060;4.228;2023-06-19T09:53:08;4.45;;;3.60;;
5014;SDS011;2526;51.060;4.228;2023-06-19T09:55:35;4.20;;;3.33;;
5014;SDS011;2526;51.060;4.228;2023-06-19T09:58:02;6.18;;;3.63;;
5014;SDS011;2526;51.060;4.228;2023-06-19T10:00:30;4.47;;;2.83;;
5014;SDS011;2526;51.060;4.228;2023-06-19T10:02:57;7.93;;;2.72;;
5014;SDS011;2526;51.060;4.228;2023-06-19T10:05:34;4.82;;;2.95;;
5014;SDS011;2526;51.060;4.228;2023-06-19T10:08:01;3.88;;;2.80;;
5014;SDS011;2526;51.060;4.228;2023-06-19T10:10:27;4.72;;;3.70;;
5014;SDS011;2526;51.060;4.228;2023-06-19T10:12:54;6.10;;;3.08;;
5014;SDS011;2526;51.060;4.228;2023-06-19T10:22:52;7.85;;;3.80;;
5014;SDS011;2526;51.060;4.228;2023-06-19T10:25:22;6.05;;;3.28;;
5014;SDS011;2526;51.060;4.228;2023-06-19T10:27:47;5.25;;;3.55;;
5014;SDS011;2526;51.060;4.228;2023-06-19T10:30:16;8.75;;;4.10;;
5014;SDS011;2526;51.060;4.228;2023-06-19T10:32:43;4.10;;;3.65;;
5014;SDS011;2526;51.060;4.228;2023-06-19T10:35:12;6.50;;;4.25;;
5014;SDS011;2526;51.060;4.228;2023-06-19T10:37:41;6.43;;;3.67;;
5014;SDS011;2526;51.060;4.228;2023-06-19T10:40:07;4.45;;;3.08;;
5014;SDS011;2526;51.060;4.228;2023-06-19T10:42:41;5.45;;;3.60;;
5014;SDS011;2526;51.060;4.228;2023-06-19T10:45:07;8.65;;;3.90;;
5014;SDS011;2526;51.060;4.228;2023-06-19T10:47:34;5.47;;;3.25;;
5014;SDS011;2526;51.060;4.228;2023-06-19T10:50:00;8.60;;;3.97;;
5014;SDS011;2526;51.060;4.228;2023-06-19T10:52:28;8.52;;;3.35;;
5014;SDS011;2526;51.060;4.228;2023-06-19T10:54:54;5.75;;;3.38;;
5014;SDS011;2526;51.060;4.228;2023-06-19T10:57:28;5.97;;;3.72;;
5014;SDS011;2526;51.060;4.228;2023-06-19T10:59:54;4.25;;;3.25;;
5014;SDS011;2526;51.060;4.228;2023-06-19T11:02:20;5.13;;;3.20;;
5014;SDS011;2526;51.060;4.228;2023-06-19T11:04:46;6.53;;;3.00;;
5014;SDS011;2526;51.060;4.228;2023-06-19T11:07:11;2.75;;;2.45;;
5014;SDS011;2526;51.060;4.228;2023-06-19T11:09:37;4.45;;;3.85;;
5014;SDS011;2526;51.060;4.228;2023-06-19T11:12:03;5.68;;;3.33;;
5014;SDS011;2526;51.060;4.228;2023-06-19T11:14:29;4.65;;;3.05;;
5014;SDS011;2526;51.060;4.228;2023-06-19T11:16:55;6.32;;;2.95;;
5014;SDS011;2526;51.060;4.228;2023-06-19T11:19:21;6.22;;;2.95;;
5014;SDS011;2526;51.060;4.228;2023-06-19T11:21:47;4.82;;;3.22;;
5014;SDS011;2526;51.060;4.228;2023-06-19T11:24:13;3.45;;;2.58;;
5014;SDS011;2526;51.060;4.228;2023-06-19T11:26:40;4.57;;;2.50;;
5014;SDS011;2526;51.060;4.228;2023-06-19T11:31:44;4.78;;;2.65;;
5014;SDS011;2526;51.060;4.228;2023-06-19T11:34:09;4.80;;;2.95;;
5014;SDS011;2526;51.060;4.228;2023-06-19T11:36:38;5.25;;;3.38;;
5014;SDS011;2526;51.060;4.228;2023-06-19T11:39:04;4.38;;;3.20;;
5014;SDS011;2526;51.060;4.228;2023-06-19T11:41:34;4.35;;;3.67;;
5014;SDS011;2526;51.060;4.228;2023-06-19T11:44:03;8.18;;;3.80;;
5014;SDS011;2526;51.060;4.228;2023-06-19T11:46:32;9.00;;;3.40;;
5014;SDS011;2526;51.060;4.228;2023-06-19T11:49:14;8.38;;;3.55;;
5014;SDS011;2526;51.060;4.228;2023-06-19T11:51:40;5.90;;;3.03;;
5014;SDS011;2526;51.060;4.228;2023-06-19T11:54:07;5.57;;;2.33;;
5014;SDS011;2526;51.060;4.228;2023-06-19T11:56:34;4.75;;;2.40;;
5014;SDS011;2526;51.060;4.228;2023-06-19T11:58:59;6.40;;;2.80;;
5014;SDS011;2526;51.060;4.228;2023-06-19T12:01:25;5.43;;;3.22;;
5014;SDS011;2526;51.060;4.228;2023-06-19T12:03:51;5.07;;;3.67;;
5014;SDS011;2526;51.060;4.228;2023-06-19T12:06:17;4.63;;;2.72;;
5014;SDS011;2526;51.060;4.228;2023-06-19T12:08:43;4.50;;;3.65;;
5014;SDS011;2526;51.060;4.228;2023-06-19T12:11:09;7.22;;;2.13;;
5014;SDS011;2526;51.060;4.228;2023-06-19T12:13:35;6.93;;;3.10;;
5014;SDS011;2526;51.060;4.228;2023-06-19T12:16:01;8.15;;;3.85;;
5014;SDS011;2526;51.060;4.228;2023-06-19T12:18:27;6.20;;;3.90;;
5014;SDS011;2526;51.060;4.228;2023-06-19T12:20:52;3.00;;;2.20;;
5014;SDS011;2526;51.060;4.228;2023-06-19T12:23:18;5.05;;;3.13;;
5014;SDS011;2526;51.060;4.228;2023-06-19T12:25:44;2.85;;;2.25;;
5014;SDS011;2526;51.060;4.228;2023-06-19T12:28:09;6.55;;;2.08;;
5014;SDS011;2526;51.060;4.228;2023-06-19T12:30:36;4.93;;;2.35;;
5014;SDS011;2526;51.060;4.228;2023-06-19T12:33:02;4.47;;;2.22;;
5014;SDS011;2526;51.060;4.228;2023-06-19T12:35:28;3.92;;;1.80;;
5014;SDS011;2526;51.060;4.228;2023-06-19T12:37:54;5.47;;;2.60;;
5014;SDS011;2526;51.060;4.228;2023-06-19T12:40:20;6.82;;;3.17;;
5014;SDS011;2526;51.060;4.228;2023-06-19T12:42:45;2.15;;;1.95;;
5014;SDS011;2526;51.060;4.228;2023-06-19T12:45:11;4.68;;;2.00;;
5014;SDS011;2526;51.060;4.228;2023-06-19T12:47:37;4.65;;;2.95;;
5014;SDS011;2526;51.060;4.228;2023-06-19T12:50:02;2.58;;;1.85;;
5014;SDS011;2526;51.060;4.228;2023-06-19T12:52:28;3.38;;;1.73;;
5014;SDS011;2526;51.060;4.228;2023-06-19T12:54:54;4.13;;;2.65;;
5014;SDS011;2526;51.060;4.228;2023-06-19T12:57:19;3.90;;;1.88;;
5014;SDS011;2526;51.060;4.228;2023-06-19T12:59:44;3.90;;;2.63;;
5014;SDS011;2526;51.060;4.228;2023-06-19T13:02:10;6.45;;;2.97;;
5014;SDS011;2526;51.060;4.228;2023-06-19T13:04:35;4.07;;;2.85;;
5014;SDS011;2526;51.060;4.228;2023-06-19T13:07:01;7.10;;;3.25;;
5014;SDS011;2526;51.060;4.228;2023-06-19T13:09:26;4.15;;;2.35;;
5014;SDS011;2526;51.060;4.228;2023-06-19T13:11:52;2.95;;;2.47;;
5014;SDS011;2526;51.060;4.228;2023-06-19T13:14:17;4.80;;;2.35;;
5014;SDS011;2526;51.060;4.228;2023-06-19T13:16:43;4.78;;;2.33;;
5014;SDS011;2526;51.060;4.228;2023-06-19T13:19:08;3.55;;;2.22;;
5014;SDS011;2526;51.060;4.228;2023-06-19T13:21:33;4.35;;;2.63;;
5014;SDS011;2526;51.060;4.228;2023-06-19T13:24:01;4.63;;;2.53;;
5014;SDS011;2526;51.060;4.228;2023-06-19T13:26:26;10.98;;;2.63;;
5014;SDS011;2526;51.060;4.228;2023-06-19T13:28:52;3.38;;;1.90;;
5014;SDS011;2526;51.060;4.228;2023-06-19T13:31:18;3.03;;;1.90;;
5014;SDS011;2526;51.060;4.228;2023-06-19T13:33:43;8.00;;;2.70;;
5014;SDS011;2526;51.060;4.228;2023-06-19T13:36:08;1.95;;;1.75;;
5014;SDS011;2526;51.060;4.228;2023-06-19T13:38:34;2.53;;;2.05;;
5014;SDS011;2526;51.060;4.228;2023-06-19T13:40:59;4.38;;;2.08;;
5014;SDS011;2526;51.060;4.228;2023-06-19T13:43:25;6.78;;;2.53;;
5014;SDS011;2526;51.060;4.228;2023-06-19T13:45:50;3.92;;;2.42;;
5014;SDS011;2526;51.060;4.228;2023-06-19T13:48:16;5.93;;;2.97;;
5014;SDS011;2526;51.060;4.228;2023-06-19T13:50:41;6.65;;;2.60;;
5014;SDS011;2526;51.060;4.228;2023-06-19T13:53:07;4.82;;;2.60;;
5014;SDS011;2526;51.060;4.228;2023-06-19T13:55:32;3.97;;;2.40;;
5014;SDS011;2526;51.060;4.228;2023-06-19T13:57:58;7.68;;;2.67;;
5014;SDS011;2526;51.060;4.228;2023-06-19T14:00:23;6.10;;;2.42;;
5014;SDS011;2526;51.060;4.228;2023-06-19T14:02:49;7.53;;;1.65;;
5014;SDS011;2526;51.060;4.228;2023-06-19T14:05:15;5.88;;;2.05;;
5014;SDS011;2526;51.060;4.228;2023-06-19T14:07:41;3.65;;;2.50;;
5014;SDS011;2526;51.060;4.228;2023-06-19T14:10:07;4.40;;;2.25;;
5014;SDS011;2526;51.060;4.228;2023-06-19T14:12:33;4.38;;;2.47;;
5014;SDS011;2526;51.060;4.228;2023-06-19T14:14:58;2.95;;;2.00;;
5014;SDS011;2526;51.060;4.228;2023-06-19T14:17:24;3.95;;;2.30;;
5014;SDS011;2526;51.060;4.228;2023-06-19T14:19:49;6.15;;;3.67;;
5014;SDS011;2526;51.060;4.228;2023-06-19T14:22:16;5.20;;;2.78;;
5014;SDS011;2526;51.060;4.228;2023-06-19T14:24:41;2.55;;;1.55;;
5014;SDS011;2526;51.060;4.228;2023-06-19T14:27:07;5.97;;;2.75;;
5014;SDS011;2526;51.060;4.228;2023-06-19T14:29:32;3.95;;;1.55;;
5014;SDS011;2526;51.060;4.228;2023-06-19T14:31:58;10.90;;;2.38;;
5014;SDS011;2526;51.060;4.228;2023-06-19T14:34:23;4.93;;;2.08;;
5014;SDS011;2526;51.060;4.228;2023-06-19T14:36:48;5.93;;;2.03;;
5014;SDS011;2526;51.060;4.228;2023-06-19T14:39:14;4.93;;;2.08;;
5014;SDS011;2526;51.060;4.228;2023-06-19T14:41:39;12.35;;;3.00;;
5014;SDS011;2526;51.060;4.228;2023-06-19T14:44:05;2.50;;;1.75;;
5014;SDS011;2526;51.060;4.228;2023-06-19T14:46:33;4.07;;;2.50;;
5014;SDS011;2526;51.060;4.228;2023-06-19T14:49:07;3.85;;;2.13;;
5014;SDS011;2526;51.060;4.228;2023-06-19T14:51:33;4.07;;;2.15;;
5014;SDS011;2526;51.060;4.228;2023-06-19T14:53:58;2.60;;;1.65;;
5014;SDS011;2526;51.060;4.228;2023-06-19T14:56:24;4.50;;;2.33;;
5014;SDS011;2526;51.060;4.228;2023-06-19T14:58:49;3.58;;;2.25;;
5014;SDS011;2526;51.060;4.228;2023-06-19T15:01:15;3.85;;;2.33;;
5014;SDS011;2526;51.060;4.228;2023-06-19T15:03:42;2.70;;;2.00;;
5014;SDS011;2526;51.060;4.228;2023-06-19T15:06:07;3.88;;;1.92;;
5014;SDS011;2526;51.060;4.228;2023-06-19T15:08:32;3.80;;;2.28;;
5014;SDS011;2526;51.060;4.228;2023-06-19T15:10:59;26.52;;;3.35;;
5014;SDS011;2526;51.060;4.228;2023-06-19T15:13:25;5.95;;;2.55;;
5014;SDS011;2526;51.060;4.228;2023-06-19T15:15:50;4.10;;;1.60;;
5014;SDS011;2526;51.060;4.228;2023-06-19T15:18:16;4.47;;;1.90;;
5014;SDS011;2526;51.060;4.228;2023-06-19T15:20:42;2.92;;;2.50;;